• Join FlightAware (Why Join?)
  • Login
  • US Flag 
10:16PM EST


 

Airport Tracker/Info


-or-


 

Live Flight TrackerFlight Track Log ✈ AAL832 ✈ 07-Aug-2013 ✈ KORD - KMIA

Flight Track Log - Related Links

Times and Time Zones

All times are in EDT time to prevent confusion due to time zone crossing. See the AAL832 flight status page for this flight to view local times or setup timezone preferences in your user account.

Time Position Orientation Groundspeed Altitude Reporting Facility
EDT Latitude Longitude Course Direction KTS MPH feet Rate Location/Type
05:41PM 41.9333 -87.9167 228° Southwest 187 215 1,600  Level Chicago TRACON
05:42PM 41.9000 -87.9667 228° Southwest 237 273 3,200 1,680 Climbing Chicago TRACON
05:43PM 41.8333 -88.0167 209° Southwest 288 331 5,000 1,260 Climbing Chicago TRACON
05:44PM 41.7406 -88.0114 178° South 283 326 6,100 1,800 Climbing Chicago Center
05:45PM 41.6619 -87.9797 163° South 296 341 9,200 2,880 Climbing Chicago Center
05:46PM 41.5822 -87.9461 162° South 301 346 12,100 2,400 Climbing Chicago Center
05:47PM 41.4958 -87.9106 163° South 318 366 14,200 1,860 Climbing Chicago Center
05:48PM 41.3928 -87.9017 176° South 362 417 16,000 1,740 Climbing Chicago Center
05:49PM 41.2822 -87.8956 178° South 388 447 17,900 1,980 Climbing Chicago Center
05:50PM 41.1442 -87.8914 179° South 410 472 20,200 2,040 Climbing Chicago Center
05:51PM 41.0247 -87.8872 178° South 424 488 22,200 1,740 Climbing Chicago Center
05:53PM 40.9039 -87.8819 178° South 433 498 23,900 1,380 Climbing Chicago Center
05:54PM 40.7781 -87.8753 178° South 453 521 25,100 1,320 Climbing Chicago Center
05:55PM 40.6492 -87.8386 168° South 476 548 26,700 1,860 Climbing Chicago Center
05:56PM 40.4964 -87.7964 168° South 472 543 29,000 1,560 Climbing Chicago Center
05:57PM 40.3703 -87.7625 168° South 466 536 30,000 1,200 Climbing Chicago Center
05:58PM 40.2419 -87.7286 169° South 471 542 31,600 1,500 Climbing Chicago Center
05:59PM 40.1228 -87.6958 168° South 460 529 33,200 1,200 Climbing Chicago Center
06:00PM 39.9958 -87.6636 169° South 457 526 34,000 960 Climbing Indianapolis Center
06:01PM 39.8711 -87.6300 168° South 459 528 35,100 900 Climbing Indianapolis Center
06:02PM 39.7456 -87.5969 169° South 462 532 35,900 420 Climbing Indianapolis Center
06:03PM 39.6197 -87.5642 169° South 464 534 36,000  Climbing Indianapolis Center
06:04PM 39.4939 -87.5294 168° South 465 535 36,000  Level Indianapolis Center
06:05PM 39.3428 -87.4911 169° South 464 534 36,000 300 Level Indianapolis Center
06:06PM 39.2167 -87.4567 168° South 466 536 36,700 480 Climbing Indianapolis Center
06:07PM 39.0906 -87.4236 169° South 467 537 37,000 120 Climbing Indianapolis Center
06:08PM 38.9647 -87.3914 169° South 462 532 37,000  Level Indianapolis Center
06:09PM 38.8386 -87.3592 169° South 462 532 37,000  Level Indianapolis Center
06:10PM 38.7133 -87.3250 168° South 461 531 37,000  Level Indianapolis Center
06:11PM 38.5661 -87.2764 166° South 456 525 37,000  Level Indianapolis Center
06:12PM 38.4494 -87.2039 154° Southeast 464 534 37,000  Level Indianapolis Center
06:13PM 38.3353 -87.1344 154° Southeast 469 540 37,000  Level Indianapolis Center
06:14PM 38.2200 -87.0642 154° Southeast 463 533 37,000  Level Indianapolis Center
06:15PM 38.0833 -86.9792 154° Southeast 469 540 37,000  Level Indianapolis Center
06:16PM 37.9683 -86.9092 154° Southeast 461 531 37,000  Level Indianapolis Center
06:17PM 37.8522 -86.8375 154° Southeast 462 532 37,000  Level Indianapolis Center
06:18PM 37.7369 -86.7703 155° Southeast 454 522 37,000  Level Indianapolis Center
06:19PM 37.6228 -86.7025 155° Southeast 451 519 37,000  Level Indianapolis Center
06:20PM 37.5072 -86.6331 155° Southeast 456 525 37,000  Level Indianapolis Center
06:21PM 37.3714 -86.5503 154° Southeast 459 528 37,000  Level Indianapolis Center
06:22PM 37.2561 -86.4828 155° Southeast 452 520 37,000  Level Indianapolis Center
06:24PM 37.1147 -86.4003 155° Southeast 452 520 37,000  Level Memphis Center
06:24PM 37.0242 -86.3450 154° Southeast 453 521 37,000  Level Indianapolis Center
06:25PM 36.9075 -86.2767 155° Southeast 453 521 37,000  Level Indianapolis Center
06:26PM 36.7917 -86.2086 155° Southeast 453 521 37,000  Level Indianapolis Center
06:27PM 36.6761 -86.1392 154° Southeast 455 524 37,000  Level Indianapolis Center
06:29PM 36.5603 -86.0722 155° Southeast 452 520 37,000  Level Indianapolis Center
06:30PM 36.4475 -86.0069 155° Southeast 445 512 37,000  Level Indianapolis Center
06:31PM 36.3317 -85.9394 155° Southeast 451 519 37,000  Level Indianapolis Center
06:32PM 36.1969 -85.8633 155° Southeast 454 522 37,000  Level Indianapolis Center
06:34PM 35.9406 -85.7186 155° Southeast 455 524 37,000  Level Atlanta Center
06:35PM 35.8286 -85.6550 155° Southeast 455 524 37,000  Level Atlanta Center
06:36PM 35.7169 -85.5886 154° Southeast 455 524 37,000  Level Atlanta Center
06:37PM 35.6008 -85.5253 156° South 455 524 37,000  Level Atlanta Center
06:38PM 35.4869 -85.4619 156° South 455 524 37,000  Level Atlanta Center
06:39PM 35.3750 -85.3989 155° Southeast 455 524 37,000  Level Atlanta Center
06:40PM 35.2586 -85.3333 155° Southeast 455 524 37,000  Level Atlanta Center
06:41PM 35.1447 -85.2706 156° South 455 524 37,000  Level Atlanta Center
06:42PM 35.0306 -85.2081 156° South 455 524 37,000  Level Atlanta Center
06:43PM 34.9164 -85.1431 155° Southeast 455 524 37,000  Level Atlanta Center
06:44PM 34.8019 -85.0811 156° South 455 524 37,000  Level Atlanta Center
06:45PM 34.6878 -85.0164 155° Southeast 455 524 37,000  Level Atlanta Center
06:46PM 34.5653 -84.9444 154° Southeast 449 517 37,000  Level Atlanta Center
06:47PM 34.4550 -84.8853 156° South 449 517 37,000  Level Atlanta Center
06:48PM 34.3406 -84.8211 155° Southeast 444 511 37,000  Level Atlanta Center
06:49PM 34.2283 -84.7600 156° South 444 511 37,000  Level Atlanta Center
06:50PM 34.1222 -84.7064 157° South 446 513 37,000  Level Atlanta Center
06:51PM 34.0097 -84.6453 156° South 452 520 37,000  Level Atlanta Center
06:52PM 33.8933 -84.5944 160° South 452 520 37,000  Level Atlanta Center
06:53PM 33.7722 -84.5561 165° South 452 520 37,000  Level Atlanta Center
06:54PM 33.6494 -84.5156 165° South 446 513 37,000  Level Atlanta Center
06:55PM 33.5181 -84.4797 167° South 440 506 37,000  Level Atlanta Center
06:56PM 33.3969 -84.4544 170° South 446 513 37,000  Level Atlanta Center
06:57PM 33.2844 -84.4092 161° South 446 513 37,000  Level Atlanta Center
06:58PM 33.1656 -84.3564 160° South 451 519 37,000  Level Atlanta Center
06:59PM 33.0508 -84.3017 158° South 446 513 37,000  Level Atlanta Center
07:00PM 32.9342 -84.2492 159° South 451 519 37,000  Level Atlanta Center
07:01PM 32.8278 -84.1994 159° South 451 519 37,000  Level Atlanta Center
07:02PM 32.7172 -84.1475 158° South 446 513 37,000  Level Atlanta Center
07:03PM 32.6003 -84.0906 158° South 446 513 37,000  Level Atlanta Center
07:04PM 32.4792 -84.0389 160° South 452 520 37,000  Level Atlanta Center
07:05PM 32.3622 -83.9847 159° South 452 520 37,000  Level Atlanta Center
07:06PM 32.2433 -83.9308 159° South 452 520 37,000  Level Atlanta Center
07:07PM 32.1283 -83.8769 158° South 452 520 37,000  Level Atlanta Center
07:08PM 31.9669 -83.8036 159° South 467 537 37,000  Level Jacksonville Center
07:09PM 31.8525 -83.7461 168° South 467 537 37,000 -60 Level Jacksonville Center
07:10PM 31.8176 -83.7665 168° South  Level FlightAware Approximate
07:10PM 31.7319 -83.6961 161° South 462 532 36,900  Level Jacksonville Center
07:11PM 31.6339 -83.6589 162° South 462 532 37,000  Climbing Jacksonville Center
07:12PM 31.4881 -83.6283 170° South 479 551 37,000  Level Jacksonville Center
07:13PM 31.3628 -83.6056 171° South 467 537 37,000  Level Jacksonville Center
07:14PM 31.2397 -83.5803 170° South 462 532 37,000  Level Jacksonville Center
07:15PM 31.1144 -83.5600 172° South 462 532 37,000  Level Jacksonville Center
07:16PM 30.9894 -83.5347 170° South 462 532 37,000  Level Jacksonville Center
07:17PM 30.8642 -83.5097 170° South 462 532 37,000 -60 Level Jacksonville Center
07:18PM 30.7411 -83.4872 171° South 462 532 36,900  Descending Jacksonville Center
07:19PM 30.6161 -83.4672 172° South 462 532 37,000  Climbing Jacksonville Center
07:20PM 30.4908 -83.4422 170° South 462 532 37,000  Level Jacksonville Center
07:21PM 30.3636 -83.4175 170° South 462 532 37,000  Level Jacksonville Center
07:22PM 30.2383 -83.3950 171° South 462 532 37,000  Level Jacksonville Center
07:23PM 30.1111 -83.3728 171° South 467 537 37,000  Level Jacksonville Center
07:24PM 29.9839 -83.3506 171° South 467 537 37,000 -60 Level Jacksonville Center
07:25PM 29.8544 -83.3283 172° South 467 537 36,900  Descending Jacksonville Center
07:26PM 29.7272 -83.3064 171° South 467 537 37,000  Climbing Jacksonville Center
07:27PM 29.5978 -83.2842 172° South 467 537 36,900  Descending Jacksonville Center
07:28PM 29.4706 -83.2600 171° South 467 537 37,000  Climbing Jacksonville Center
07:29PM 29.3453 -83.2356 170° South 467 537 37,000  Level Jacksonville Center
07:30PM 29.2203 -83.2114 170° South 461 531 37,000  Level Jacksonville Center
07:31PM 29.0950 -83.1897 171° South 461 531 37,000  Level Jacksonville Center
07:32PM 28.9719 -83.1703 172° South 461 531 37,000  Level Jacksonville Center
07:33PM 28.8425 -83.1817 184° South 461 531 37,000  Level Jacksonville Center
07:34PM 28.7131 -83.1981 186° South 461 531 37,000 -60 Level Jacksonville Center
07:35PM 28.5878 -83.2189 188° South 461 531 36,900  Descending Jacksonville Center
07:37PM 28.3939 -83.2506 188° South 446 513 37,000  Climbing Miami Center
07:38PM 28.2533 -83.2731 188° South 451 519 36,900  Descending Miami Center
07:39PM 28.1250 -83.2942 188° South 456 525 37,000  Climbing Miami Center
07:40PM 27.9969 -83.3150 188° South 467 537 37,000  Level Miami Center
07:41PM 27.8669 -83.3333 187° South 472 543 37,000 -60 Level Miami Center
07:42PM 27.7364 -83.3564 189° South 472 543 36,900 -180 Descending Miami Center
07:43PM 27.6089 -83.3656 184° South 467 537 36,700 -600 Descending Miami Center
07:44PM 27.4806 -83.3442 172° South 456 525 35,700 -1,020 Descending Miami Center
07:46PM 27.3727 -83.1422 121° Southeast  Level Estimated
07:47PM 27.1250 -83.1775 121° Southeast 460 529 32,800  Level Miami Center
07:48PM 27.0067 -83.1150 155° Southeast 471 542 31,900 -960 Descending Miami Center
07:49PM 26.8881 -83.0575 157° South 471 542 30,900 -960 Descending Miami Center
07:50PM 26.7656 -82.9953 156° South 471 542 30,000 -960 Descending Miami Center
07:51PM 26.6475 -82.9264 152° Southeast 471 542 29,000 -1,020 Descending Miami Center
07:52PM 26.5403 -82.8419 145° Southeast 471 542 28,000 -1,020 Descending Miami Center
07:53PM 26.4394 -82.7558 143° Southeast 471 542 27,000 -1,020 Descending Miami Center
07:54PM 26.3406 -82.6697 142° Southeast 459 528 26,000 -1,020 Descending Miami Center
07:55PM 26.2589 -82.5731 133° Southeast 452 520 25,000 -1,020 Descending Miami Center
07:56PM 26.2053 -82.4481 116° Southeast 444 511 24,000 -540 Descending Miami Center
07:57PM 26.1864 -82.3383 101° East 420 483 24,000  Level Miami Center
07:58PM 26.1597 -82.2144 103° East 414 476 24,000 -300 Level Miami Center
07:59PM 26.1331 -82.0883 103° East 408 470 23,400 -840 Descending Miami Center
08:00PM 26.1061 -81.9600 103° East 413 475 22,400 -1,020 Descending Miami Center
08:01PM 26.0811 -81.8389 103° East 413 475 21,400 -1,020 Descending Miami Center
08:02PM 26.0539 -81.7175 104° East 408 470 20,400 -1,020 Descending Miami Center
08:03PM 26.0286 -81.5986 103° East 402 463 19,400 -1,260 Descending Miami Center
08:04PM 26.0033 -81.4728 103° East 391 450 17,900 -1,800 Descending Miami Center
08:05PM 25.9778 -81.3608 104° East 379 436 15,900 -2,040 Descending Miami Center
08:06PM 25.9575 -81.2656 103° East 362 417 13,900 -2,040 Descending Miami Center
08:07PM 25.9331 -81.1792 107° East 354 407 12,400 -2,040 Descending Miami Center
08:07PM 25.9128 -81.0836 103° East 343 395 10,600 -1,260 Descending Miami Center
08:09PM 25.8739 -80.9853 114° Southeast 288 331 9,900 -1,080 Descending Miami Center
08:10PM 25.8383 -80.9081 117° Southeast 275 316 8,400 -1,440 Descending Miami Center
08:11PM 25.8033 -80.8192 114° Southeast 277 319 6,700 -1,380 Descending Miami Center
08:12PM 25.7886 -80.7447 102° East 261 300 5,400 -1,440 Descending Miami Center
08:13PM 25.7864 -80.6708 92° East 239 275 3,900 -1,200 Descending Miami Center
08:14PM 25.8246 -80.5492 119° Southeast  Level FlightAware Approximate
08:14PM 25.7858 -80.6133 119° Southeast 221 254 3,100  Level Miami Center
08:15PM 25.7831 -80.5578 93° East 195 224 2,900 -60 Descending Miami Center
08:16PM 25.7778 -80.5139 98° East 172 198 3,000 -240 Climbing Miami Center
08:17PM 25.7750 -80.4606 93° East 174 200 2,500 -780 Descending Miami Center
08:18PM 25.7803 -80.4147 83° East 160 184 1,600 -840 Descending Miami Center
08:19PM 25.7792 -80.3686 92° East 146 168 900 -720 Descending Miami Center